Time;durP1;ratioP1;P1;durP2;ratioP2;P2;SDS_P1;SDS_P2;PMS_P1;PMS_P2;Temp;Humidity;BMP_temperature;BMP_pressure;BME280_temperature;BME280_humidity;BME280_pressure;Samples;Min_cycle;Max_cycle;Signal;HPM_P1;HPM_P2
2022/01/18 00:00:04;;;;;;;8.50;1.25;;;2.40;99.90;;;;;;4963393;28;20026;-72
2022/01/18 00:02:30;;;;;;;7.32;2.00;;;2.40;99.90;;;;;;4958876;28;20387;-73
2022/01/18 00:04:56;;;;;;;12.00;1.50;;;2.50;99.90;;;;;;4968698;28;20026;-73
2022/01/18 00:07:21;;;;;;;10.73;2.20;;;2.50;99.90;;;;;;4959435;28;20345;-74
2022/01/18 00:09:49;;;;;;;8.70;2.17;;;2.50;99.90;;;;;;4969531;28;20034;-72
2022/01/18 00:15:32;;;;;;;9.45;1.95;;;2.50;99.90;;;;;;4939730;28;20054;-72
2022/01/18 00:23:06;;;;;;;11.70;2.20;;;2.50;99.90;;;;;;4965082;28;20526;-72
2022/01/18 00:25:35;;;;;;;8.37;2.27;;;2.40;99.90;;;;;;4966479;28;20018;-73
2022/01/18 00:28:01;;;;;;;8.43;1.90;;;2.40;99.90;;;;;;4961865;28;20019;-72
2022/01/18 00:30:55;;;;;;;6.77;1.87;;;2.40;99.90;;;;;;4959891;28;20527;-72
2022/01/18 00:35:45;;;;;;;4.80;1.58;;;2.30;99.90;;;;;;4964186;28;20033;-72
2022/01/18 00:38:17;;;;;;;4.53;2.20;;;2.30;99.90;;;;;;4966620;28;20019;-72
2022/01/18 00:40:43;;;;;;;9.45;1.67;;;2.30;99.90;;;;;;4970923;28;20061;-73
2022/01/18 00:43:09;;;;;;;4.47;2.33;;;2.30;99.90;;;;;;4976104;28;20073;-72
2022/01/18 00:45:35;;;;;;;9.67;1.70;;;2.30;99.90;;;;;;4961382;28;20041;-72
2022/01/18 00:48:01;;;;;;;10.67;2.00;;;2.30;99.90;;;;;;4969918;28;20105;-70
2022/01/18 00:50:31;;;;;;;4.65;1.48;;;2.30;99.90;;;;;;4965878;28;20126;-70
2022/01/18 00:52:58;;;;;;;6.20;2.28;;;2.30;99.90;;;;;;4965025;28;20668;-70
2022/01/18 00:55:27;;;;;;;4.18;2.03;;;2.30;99.90;;;;;;4968374;28;20031;-69
2022/01/18 00:57:54;;;;;;;4.88;1.70;;;2.30;99.90;;;;;;4966120;28;20026;-70
2022/01/18 01:00:21;;;;;;;6.25;1.90;;;2.30;99.90;;;;;;4966379;28;20473;-70
2022/01/18 01:02:49;;;;;;;7.75;1.73;;;2.20;99.90;;;;;;4964309;28;21322;-70
2022/01/18 01:05:14;;;;;;;9.63;2.28;;;2.30;99.90;;;;;;4970201;28;20470;-71
2022/01/18 01:07:40;;;;;;;8.23;1.93;;;2.20;99.90;;;;;;4966952;28;20102;-73
2022/01/18 01:10:06;;;;;;;6.20;2.30;;;2.20;99.90;;;;;;4972792;28;20050;-72
2022/01/18 01:12:34;;;;;;;6.03;2.40;;;2.20;99.90;;;;;;4966257;28;20018;-74
2022/01/18 01:15:08;;;;;;;8.05;2.92;;;2.20;99.90;;;;;;4964383;28;20026;-73
2022/01/18 01:17:48;;;;;;;6.78;2.28;;;2.20;99.90;;;;;;4967344;28;20022;-71
2022/01/18 01:44:39;;;;;;;12.47;3.33;;;2.10;99.90;;;;;;4966471;28;20026;-70
2022/01/18 01:47:05;;;;;;;9.00;2.25;;;2.10;99.90;;;;;;4963230;28;20038;-72
2022/01/18 01:49:31;;;;;;;5.95;1.70;;;2.10;99.90;;;;;;4965700;28;20412;-72
2022/01/18 01:51:57;;;;;;;9.50;3.30;;;2.10;99.90;;;;;;4965109;28;20030;-72
2022/01/18 01:54:24;;;;;;;2.97;1.70;;;2.10;99.90;;;;;;4963699;28;20046;-73
2022/01/18 01:56:51;;;;;;;2.95;1.80;;;2.10;99.90;;;;;;4971697;28;20045;-73
2022/01/18 01:59:18;;;;;;;8.80;1.77;;;2.10;99.90;;;;;;4970947;28;20117;-73
2022/01/18 02:01:47;;;;;;;8.65;2.33;;;2.00;99.90;;;;;;4965082;28;20031;-73
2022/01/18 02:04:13;;;;;;;3.88;1.77;;;2.10;99.90;;;;;;4964492;28;20470;-71
2022/01/18 02:06:39;;;;;;;4.63;1.67;;;2.10;99.90;;;;;;4963932;28;20026;-70
2022/01/18 02:09:05;;;;;;;7.55;2.25;;;2.10;99.90;;;;;;4970599;28;20034;-73
2022/01/18 02:11:33;;;;;;;4.03;1.70;;;2.10;99.90;;;;;;4963468;28;20080;-72
2022/01/18 02:14:00;;;;;;;8.02;2.50;;;2.10;99.90;;;;;;4967738;28;20102;-73
2022/01/18 02:21:54;;;;;;;8.13;2.42;;;2.10;99.90;;;;;;4969234;28;20062;-73
2022/01/18 02:24:24;;;;;;;6.40;2.13;;;2.10;99.90;;;;;;4966764;28;20087;-72
2022/01/18 02:26:50;;;;;;;8.77;2.25;;;2.10;99.90;;;;;;4966864;28;20027;-73
2022/01/18 02:29:17;;;;;;;8.90;2.30;;;2.10;99.90;;;;;;4970167;28;20027;-73
2022/01/18 02:31:43;;;;;;;5.72;1.90;;;2.10;99.90;;;;;;4966545;28;20022;-74
2022/01/18 02:34:16;;;;;;;5.73;1.70;;;2.10;99.90;;;;;;4963500;28;20042;-73
2022/01/18 02:36:42;;;;;;;8.35;1.80;;;2.10;99.90;;;;;;4962958;28;20872;-73
2022/01/18 02:39:12;;;;;;;8.93;2.95;;;2.00;99.90;;;;;;4966032;28;20096;-73
2022/01/18 02:41:40;;;;;;;5.70;2.03;;;2.00;99.90;;;;;;4961366;28;20029;-73
2022/01/18 02:44:13;;;;;;;7.45;2.50;;;2.00;99.90;;;;;;4960867;28;20062;-70
2022/01/18 02:46:41;;;;;;;3.67;1.63;;;2.00;99.90;;;;;;4961182;28;20030;-70
2022/01/18 02:49:08;;;;;;;4.25;1.63;;;2.00;99.90;;;;;;4969078;28;20153;-70
2022/01/18 02:51:35;;;;;;;11.00;2.55;;;2.00;99.90;;;;;;4963213;28;20039;-70
2022/01/18 02:54:09;;;;;;;6.63;2.78;;;2.00;99.90;;;;;;4965486;28;20097;-70
2022/01/18 02:56:40;;;;;;;3.00;1.80;;;2.00;99.90;;;;;;4960084;28;20050;-70
2022/01/18 02:59:14;;;;;;;8.57;2.55;;;1.90;99.90;;;;;;4965953;28;20102;-72
2022/01/18 03:04:24;;;;;;;4.28;1.67;;;1.90;99.90;;;;;;4952556;28;20073;-72
2022/01/18 03:06:50;;;;;;;4.20;1.87;;;1.80;99.90;;;;;;4967589;28;20089;-72
2022/01/18 03:09:16;;;;;;;4.97;1.77;;;1.80;99.90;;;;;;4968221;28;20128;-72
2022/01/18 03:11:43;;;;;;;8.07;2.10;;;1.80;99.90;;;;;;4962653;28;21425;-73
2022/01/18 03:14:09;;;;;;;11.52;3.10;;;1.80;99.90;;;;;;4968157;28;20025;-73
2022/01/18 03:16:35;;;;;;;6.10;1.70;;;1.80;99.90;;;;;;4963394;28;20465;-73
2022/01/18 03:19:00;;;;;;;6.23;1.97;;;1.80;99.90;;;;;;4968926;28;20064;-73
2022/01/18 03:21:27;;;;;;;5.13;1.40;;;1.90;99.90;;;;;;4966219;28;20027;-73
2022/01/18 03:24:10;;;;;;;4.07;1.30;;;1.80;99.90;;;;;;4972960;28;20583;-73
2022/01/18 03:28:03;;;;;;;7.60;1.90;;;1.90;99.90;;;;;;4961199;28;20022;-73
2022/01/18 03:29:23;;;;;;;8.02;1.88;;;1.90;99.90;;;;;;4971231;28;20134;-73
2022/01/18 03:31:49;;;;;;;5.72;1.63;;;1.80;99.90;;;;;;4963884;28;20025;-73
2022/01/18 03:34:15;;;;;;;5.87;1.53;;;1.80;99.90;;;;;;4973721;28;20491;-73
2022/01/18 03:36:41;;;;;;;6.83;1.60;;;1.80;99.90;;;;;;4961541;28;20521;-72
2022/01/18 03:39:07;;;;;;;8.20;1.90;;;1.80;99.90;;;;;;4971025;28;20077;-72
2022/01/18 03:41:34;;;;;;;4.07;1.47;;;1.80;99.90;;;;;;4964960;28;20038;-72
2022/01/18 03:43:59;;;;;;;10.73;2.13;;;1.80;99.90;;;;;;4967854;28;20037;-73
2022/01/18 03:46:25;;;;;;;7.43;2.63;;;1.70;99.90;;;;;;4959113;28;20102;-72
2022/01/18 03:48:52;;;;;;;4.33;1.40;;;1.70;99.90;;;;;;4966971;28;20444;-73
2022/01/18 03:51:18;;;;;;;7.00;2.00;;;1.70;99.90;;;;;;4960398;28;20534;-73
2022/01/18 03:53:44;;;;;;;7.00;1.70;;;1.70;99.90;;;;;;4971519;28;20747;-73
2022/01/18 03:56:10;;;;;;;6.03;1.70;;;1.70;99.90;;;;;;4964589;28;20035;-74
2022/01/18 03:58:37;;;;;;;5.47;1.40;;;1.70;99.90;;;;;;4961214;28;20027;-72
2022/01/18 04:01:03;;;;;;;11.40;2.15;;;1.70;99.90;;;;;;4966450;28;20262;-74
2022/01/18 04:03:29;;;;;;;6.90;1.88;;;1.70;99.90;;;;;;4966229;28;20053;-72
2022/01/18 04:05:56;;;;;;;5.77;1.57;;;1.70;99.90;;;;;;4966489;28;20047;-72
2022/01/18 04:08:22;;;;;;;;;;;1.70;99.90;;;;;;4968666;28;20524;-73
2022/01/18 04:10:49;;;;;;;5.50;1.42;;;1.70;99.90;;;;;;4960470;28;19927;-72
2022/01/18 04:13:16;;;;;;;;;;;1.60;99.90;;;;;;4967262;28;20103;-73
2022/01/18 04:15:42;;;;;;;6.88;2.08;;;1.60;99.90;;;;;;4964102;28;20815;-73
2022/01/18 04:18:18;;;;;;;4.50;1.67;;;1.60;99.90;;;;;;4969819;28;20110;-72
2022/01/18 04:28:56;;;;;;;4.88;1.45;;;1.60;99.90;;;;;;4972777;28;20122;-73
2022/01/18 04:31:24;;;;;;;10.00;1.45;;;1.60;99.90;;;;;;4968976;28;20078;-70
2022/01/18 04:33:51;;;;;;;10.15;2.15;;;1.60;99.90;;;;;;4973632;28;20104;-73
2022/01/18 04:36:17;;;;;;;6.50;1.75;;;1.50;99.90;;;;;;4963030;28;20032;-73
2022/01/18 04:38:43;;;;;;;4.87;1.70;;;1.60;99.90;;;;;;4962712;28;20904;-73
2022/01/18 04:41:15;;;;;;;4.97;1.52;;;1.60;99.90;;;;;;4972521;28;20401;-72
2022/01/18 04:49:15;;;;;;;8.88;1.75;;;1.50;99.90;;;;;;4966347;28;20037;-73
2022/01/18 04:51:42;;;;;;;11.38;2.00;;;1.50;99.90;;;;;;4959433;28;20487;-74
2022/01/18 04:54:09;;;;;;;;;;;1.60;99.90;;;;;;4969570;28;20391;-73
2022/01/18 04:59:04;;;;;;;8.43;1.73;;;1.60;99.90;;;;;;4968749;28;20022;-70
2022/01/18 05:01:30;;;;;;;3.15;2.13;;;1.60;99.90;;;;;;4963645;28;20041;-70
2022/01/18 05:03:55;;;;;;;8.50;1.63;;;1.60;99.90;;;;;;4968546;28;20018;-70
2022/01/18 05:06:22;;;;;;;5.87;1.73;;;1.60;99.90;;;;;;4958123;28;20034;-70
2022/01/18 05:08:48;;;;;;;5.18;2.42;;;1.60;99.90;;;;;;4971747;28;20365;-71
2022/01/18 05:11:17;;;;;;;6.75;2.03;;;1.60;99.90;;;;;;4965405;28;20038;-70
2022/01/18 05:14:03;;;;;;;7.40;2.17;;;1.60;99.90;;;;;;4972826;28;20164;-71
2022/01/18 05:19:18;;;;;;;13.30;1.80;;;1.60;99.90;;;;;;4963347;28;20076;-70
2022/01/18 05:24:30;;;;;;;6.18;1.90;;;1.60;99.90;;;;;;4964898;28;20538;-71
2022/01/18 05:27:01;;;;;;;9.65;2.28;;;1.60;99.90;;;;;;4959631;28;20424;-71
2022/01/18 05:29:27;;;;;;;5.63;1.60;;;1.70;99.90;;;;;;4970107;28;20029;-71
2022/01/18 05:31:53;;;;;;;6.95;1.75;;;1.60;99.90;;;;;;4967555;28;20423;-71
2022/01/18 05:34:19;;;;;;;10.52;2.80;;;1.70;99.90;;;;;;4976582;28;20027;-71
2022/01/18 05:36:45;;;;;;;5.80;2.00;;;1.70;99.90;;;;;;4964541;28;20069;-71
2022/01/18 05:39:13;;;;;;;9.00;2.37;;;1.70;99.90;;;;;;4968539;28;20027;-75
2022/01/18 05:41:44;;;;;;;11.00;2.53;;;1.70;99.90;;;;;;4964565;28;20638;-71
2022/01/18 05:44:09;;;;;;;7.10;2.58;;;1.70;99.90;;;;;;4966814;28;20027;-71
2022/01/18 05:46:35;;;;;;;8.03;2.40;;;1.70;99.90;;;;;;4965899;28;20101;-71
2022/01/18 05:49:02;;;;;;;9.93;2.20;;;1.70;99.90;;;;;;4966973;28;20425;-71
2022/01/18 05:51:28;;;;;;;8.05;2.08;;;1.70;99.90;;;;;;4966130;28;20527;-71
2022/01/18 05:53:55;;;;;;;5.33;1.93;;;1.80;99.90;;;;;;4913359;28;1491965;-71
2022/01/18 05:56:23;;;;;;;;;;;1.80;99.90;;;;;;4965737;28;20023;-70
2022/01/18 05:58:49;;;;;;;7.82;2.80;;;1.80;99.90;;;;;;4972817;28;19906;-71
2022/01/18 06:01:27;;;;;;;10.35;2.55;;;1.80;99.90;;;;;;4973687;28;20065;-71
2022/01/18 06:09:16;;;;;;;7.28;1.92;;;1.80;99.90;;;;;;4968788;28;20068;-73
2022/01/18 06:11:42;;;;;;;10.00;2.40;;;1.80;99.90;;;;;;4964696;28;20069;-73
2022/01/18 06:14:08;;;;;;;7.07;2.13;;;1.70;99.90;;;;;;4966697;28;20456;-73
2022/01/18 06:16:33;;;;;;;9.07;2.30;;;1.80;99.90;;;;;;4961378;28;20026;-72
2022/01/18 06:19:00;;;;;;;11.30;3.57;;;1.70;99.90;;;;;;4960645;28;21062;-72
2022/01/18 06:21:25;;;;;;;4.13;2.38;;;1.70;99.90;;;;;;4964470;28;20027;-72
2022/01/18 06:23:51;;;;;;;7.37;2.27;;;1.70;99.90;;;;;;4971131;28;20034;-73
2022/01/18 06:26:17;;;;;;;8.37;2.60;;;1.70;99.90;;;;;;4963183;28;20035;-72
2022/01/18 06:28:43;;;;;;;5.83;2.20;;;1.70;99.90;;;;;;4959186;28;20451;-73
2022/01/18 06:31:09;;;;;;;7.82;2.78;;;1.70;99.90;;;;;;4966676;28;20023;-73
2022/01/18 06:33:35;;;;;;;9.23;2.47;;;1.60;99.90;;;;;;4962312;28;20030;-73
2022/01/18 06:36:03;;;;;;;6.00;2.03;;;1.60;99.90;;;;;;4968970;28;20019;-73
2022/01/18 06:38:30;;;;;;;8.40;2.42;;;1.60;99.90;;;;;;4963758;28;20069;-72
2022/01/18 06:40:58;;;;;;;9.15;2.75;;;1.60;99.90;;;;;;4969412;28;20023;-72
2022/01/18 06:43:24;;;;;;;6.40;2.50;;;1.60;99.90;;;;;;4960104;28;20025;-73
2022/01/18 06:45:49;;;;;;;4.83;2.17;;;1.60;99.90;;;;;;4969539;28;20031;-72
2022/01/18 06:48:15;;;;;;;7.97;2.30;;;1.70;99.90;;;;;;4970768;28;20027;-73
2022/01/18 06:50:42;;;;;;;14.57;2.70;;;1.70;99.90;;;;;;4961368;28;20337;-73
2022/01/18 06:53:07;;;;;;;6.60;2.30;;;1.80;99.90;;;;;;4965064;28;20030;-73
2022/01/18 06:55:33;;;;;;;7.03;2.10;;;2.00;99.90;;;;;;4956377;28;20103;-73
2022/01/18 06:58:01;;;;;;;9.57;2.40;;;2.20;99.90;;;;;;4960720;28;20023;-72
2022/01/18 07:00:27;;;;;;;9.73;2.40;;;2.40;99.90;;;;;;4963078;28;20058;-72
2022/01/18 07:02:53;;;;;;;11.98;3.45;;;2.70;99.90;;;;;;4965375;28;20031;-80
2022/01/18 07:05:19;;;;;;;9.23;2.60;;;3.10;99.90;;;;;;4963561;28;20037;-75
2022/01/18 07:07:47;;;;;;;6.97;2.43;;;3.50;99.90;;;;;;4964241;28;20069;-78
2022/01/18 07:10:14;;;;;;;7.13;2.50;;;3.90;99.90;;;;;;4967663;28;20054;-74
2022/01/18 07:12:40;;;;;;;;;;;4.30;99.90;;;;;;4958156;28;20566;-75
2022/01/18 07:15:06;;;;;;;10.20;2.38;;;4.70;99.10;;;;;;4966180;28;19914;-76
2022/01/18 07:17:33;;;;;;;6.20;2.30;;;5.20;97.90;;;;;;4963299;28;20019;-74
2022/01/18 07:19:59;;;;;;;6.05;2.20;;;5.80;96.40;;;;;;4961976;28;20474;-72
2022/01/18 07:22:25;;;;;;;11.27;2.53;;;6.30;95.40;;;;;;4960774;28;20019;-72
2022/01/18 07:24:56;;;;;;;8.67;2.47;;;6.80;93.50;;;;;;4960407;28;20308;-72
2022/01/18 07:27:23;;;;;;;11.13;2.70;;;7.30;92.20;;;;;;4969962;28;20019;-73
2022/01/18 07:29:49;;;;;;;17.00;3.03;;;8.00;90.40;;;;;;4968662;28;20093;-70
2022/01/18 07:32:15;;;;;;;5.55;2.15;;;8.60;86.30;;;;;;4969268;28;20062;-70
2022/01/18 07:34:49;;;;;;;5.25;2.17;;;9.10;82.50;;;;;;4962478;28;20101;-73
2022/01/18 07:37:16;;;;;;;10.05;2.90;;;9.40;81.70;;;;;;4968143;28;20428;-73
2022/01/18 07:39:42;;;;;;;6.20;2.47;;;10.00;77.70;;;;;;4964578;28;20377;-73
2022/01/18 07:42:08;;;;;;;;;;;10.20;71.70;;;;;;4957781;28;20054;-73
2022/01/18 07:44:35;;;;;;;7.47;2.58;;;10.20;71.10;;;;;;4960836;28;20318;-73
2022/01/18 07:47:01;;;;;;;;;;;10.30;72.90;;;;;;4963026;28;20449;-73
2022/01/18 07:49:26;;;;;;;10.15;2.58;;;10.30;71.10;;;;;;4960482;28;19953;-73
2022/01/18 07:51:53;;;;;;;7.68;2.50;;;10.30;70.50;;;;;;4963846;28;20134;-73
2022/01/18 07:54:20;;;;;;;6.95;2.63;;;10.30;69.70;;;;;;4960302;28;20511;-72
2022/01/18 07:56:46;;;;;;;;;;;10.10;70.20;;;;;;4967529;28;20034;-73
2022/01/18 07:59:12;;;;;;;8.48;2.45;;;10.00;70.90;;;;;;4963818;28;20809;-73
2022/01/18 08:01:39;;;;;;;5.57;2.30;;;9.50;72.80;;;;;;4968239;28;20026;-74
2022/01/18 08:04:04;;;;;;;13.50;3.72;;;9.00;76.70;;;;;;4961005;28;20162;-72
2022/01/18 08:06:31;;;;;;;9.77;2.80;;;8.70;79.30;;;;;;4963336;28;20046;-74
2022/01/18 08:08:57;;;;;;;7.38;2.78;;;8.50;80.70;;;;;;4966509;28;20079;-73
2022/01/18 08:11:23;;;;;;;7.13;2.57;;;8.50;82.20;;;;;;4962858;28;20026;-73
2022/01/18 08:13:50;;;;;;;8.77;2.57;;;8.30;82.90;;;;;;4970659;28;20895;-72
2022/01/18 08:18:50;;;;;;;8.73;2.72;;;7.70;86.80;;;;;;4963782;28;20454;-73
2022/01/18 08:21:17;;;;;;;5.97;2.83;;;7.70;87.90;;;;;;4963790;28;20060;-73
2022/01/18 08:23:43;;;;;;;9.85;3.03;;;7.70;89.10;;;;;;4966178;28;20492;-73
2022/01/18 08:26:10;;;;;;;;;;;7.80;89.10;;;;;;4960846;28;20040;-71
2022/01/18 08:28:36;;;;;;;9.13;2.78;;;8.10;87.40;;;;;;4961023;28;20013;-71
2022/01/18 08:31:03;;;;;;;9.27;2.40;;;8.60;84.20;;;;;;4956959;28;20106;-72
2022/01/18 08:33:31;;;;;;;7.07;2.75;;;9.10;81.30;;;;;;4966459;28;20018;-71
2022/01/18 08:36:03;;;;;;;8.95;3.08;;;10.00;76.70;;;;;;4959124;28;20019;-72
2022/01/18 08:38:30;;;;;;;7.85;2.42;;;10.80;70.20;;;;;;4970194;28;20033;-72
2022/01/18 08:40:58;;;;;;;5.43;2.20;;;11.30;67.40;;;;;;4965532;28;20388;-72
2022/01/18 08:43:26;;;;;;;5.28;2.67;;;11.70;65.80;;;;;;4968481;28;20023;-71
2022/01/18 08:45:51;;;;;;;9.10;2.58;;;12.00;62.20;;;;;;4965145;28;20081;-71
2022/01/18 08:48:17;;;;;;;11.07;2.60;;;12.30;60.10;;;;;;4957071;28;20027;-71
2022/01/18 08:50:43;;;;;;;4.30;2.20;;;12.40;59.80;;;;;;4963406;28;20301;-71
2022/01/18 08:53:10;;;;;;;8.65;2.92;;;12.80;57.80;;;;;;4960767;28;20305;-72
2022/01/18 08:55:36;;;;;;;7.90;2.47;;;12.90;56.90;;;;;;4970952;28;20031;-73
2022/01/18 08:58:02;;;;;;;8.18;2.70;;;13.00;56.20;;;;;;4956231;28;20469;-73
2022/01/18 09:00:29;;;;;;;9.38;3.50;;;13.50;54.70;;;;;;4965274;28;20034;-72
2022/01/18 09:02:54;;;;;;;6.75;2.75;;;14.00;52.30;;;;;;4969355;28;20030;-73
2022/01/18 09:05:23;;;;;;;6.90;2.60;;;14.20;51.40;;;;;;4964751;28;20082;-73
2022/01/18 09:07:50;;;;;;;7.97;2.38;;;14.30;50.70;;;;;;4962573;28;20058;-73
2022/01/18 09:10:16;;;;;;;6.22;2.47;;;14.80;50.30;;;;;;4967009;28;20557;-73
2022/01/18 09:12:42;;;;;;;9.85;2.80;;;15.10;49.60;;;;;;4967689;28;20091;-73
2022/01/18 09:15:10;;;;;;;7.55;2.60;;;15.90;47.60;;;;;;4967943;28;20032;-74
2022/01/18 09:17:39;;;;;;;11.05;3.08;;;15.60;47.50;;;;;;4968526;28;20029;-73
2022/01/18 09:20:08;;;;;;;6.65;2.63;;;15.80;46.50;;;;;;4958590;28;20031;-73
2022/01/18 09:22:37;;;;;;;8.85;3.05;;;15.90;45.80;;;;;;4969015;28;20031;-73
2022/01/18 09:25:10;;;;;;;7.22;2.40;;;15.90;46.40;;;;;;4965032;28;20030;-73
2022/01/18 09:27:36;;;;;;;7.88;2.40;;;16.40;45.30;;;;;;4961579;28;20829;-73
2022/01/18 09:30:03;;;;;;;5.28;2.10;;;16.80;44.30;;;;;;4967393;28;20026;-73
2022/01/18 09:32:29;;;;;;;6.65;2.72;;;17.20;43.40;;;;;;4964616;28;20022;-73
2022/01/18 09:34:54;;;;;;;12.13;3.05;;;17.60;42.10;;;;;;4968897;28;20023;-73
2022/01/18 09:37:20;;;;;;;6.68;2.83;;;17.40;42.00;;;;;;4960032;28;20035;-73
2022/01/18 09:39:47;;;;;;;8.60;2.67;;;17.10;42.60;;;;;;4965280;28;20030;-73
2022/01/18 09:42:14;;;;;;;5.72;2.72;;;16.90;41.80;;;;;;4963578;28;20602;-73
2022/01/18 09:44:40;;;;;;;7.10;2.63;;;16.60;43.00;;;;;;4963685;28;20026;-75
2022/01/18 09:47:06;;;;;;;8.00;2.45;;;16.40;42.90;;;;;;4959003;28;20105;-76
2022/01/18 09:49:33;;;;;;;;;;;16.50;43.10;;;;;;4967317;28;20063;-75
2022/01/18 09:51:59;;;;;;;11.43;3.40;;;16.50;42.60;;;;;;4961909;28;21865;-75
2022/01/18 09:54:24;;;;;;;5.68;2.33;;;16.80;41.70;;;;;;4988457;28;20265;-75
2022/01/18 09:56:50;;;;;;;9.82;2.67;;;16.90;41.40;;;;;;4963711;28;20037;-73
2022/01/18 09:59:16;;;;;;;8.73;2.53;;;16.80;41.50;;;;;;4971703;28;20106;-73
2022/01/18 10:01:44;;;;;;;6.32;2.53;;;16.80;42.30;;;;;;4961529;28;20448;-73
2022/01/18 10:04:19;;;;;;;7.18;2.70;;;17.30;40.90;;;;;;4964996;28;20025;-73
2022/01/18 10:06:52;;;;;;;9.57;3.10;;;17.10;40.20;;;;;;4953919;28;20106;-73
2022/01/18 10:09:20;;;;;;;10.02;2.90;;;16.80;41.20;;;;;;4970072;28;20035;-73
2022/01/18 10:12:10;;;;;;;9.02;2.65;;;16.80;41.30;;;;;;4966535;28;20030;-73
2022/01/18 10:14:38;;;;;;;9.70;2.72;;;16.90;40.70;;;;;;4963341;28;20019;-73
2022/01/18 10:17:05;;;;;;;8.00;2.40;;;16.20;41.10;;;;;;4964165;28;20073;-73
2022/01/18 10:19:49;;;;;;;7.57;2.28;;;15.50;42.50;;;;;;4960281;28;20118;-73
2022/01/18 10:22:20;;;;;;;7.30;2.58;;;15.50;43.60;;;;;;4964295;28;20042;-73
2022/01/18 10:24:45;;;;;;;7.97;2.28;;;15.90;42.70;;;;;;4956882;28;20026;-73
2022/01/18 10:27:13;;;;;;;6.03;2.10;;;16.20;42.00;;;;;;4964667;28;20018;-73
2022/01/18 10:29:48;;;;;;;8.27;2.38;;;16.40;41.30;;;;;;4967665;28;20026;-73
2022/01/18 10:35:04;;;;;;;4.90;2.20;;;16.50;40.40;;;;;;4963840;28;20080;-73
2022/01/18 10:37:31;;;;;;;7.20;2.38;;;16.10;41.00;;;;;;4965833;28;20030;-73
2022/01/18 10:40:05;;;;;;;9.57;2.80;;;16.40;40.60;;;;;;4983105;28;20592;-73
2022/01/18 10:42:42;;;;;;;5.50;1.90;;;16.50;40.80;;;;;;4959399;28;20031;-73
2022/01/18 10:45:14;;;;;;;;;;;16.10;40.30;;;;;;4967581;28;20022;-73
2022/01/18 10:48:01;;;;;;;6.95;2.22;;;15.70;40.40;;;;;;4960110;28;19914;-72
2022/01/18 10:50:33;;;;;;;6.67;2.13;;;15.20;41.00;;;;;;4964792;28;20457;-72
2022/01/18 10:53:17;;;;;;;8.93;2.70;;;14.80;41.70;;;;;;4959858;28;20305;-72
2022/01/18 10:55:46;;;;;;;8.52;2.47;;;13.80;43.50;;;;;;4959109;28;20025;-72
2022/01/18 10:58:13;;;;;;;8.52;2.15;;;13.20;44.50;;;;;;4963705;28;20033;-72
2022/01/18 11:00:40;;;;;;;11.82;2.50;;;12.80;44.70;;;;;;4964264;28;20362;-73
2022/01/18 11:03:07;;;;;;;6.25;2.03;;;12.00;46.50;;;;;;4965966;28;20472;-72
2022/01/18 11:05:37;;;;;;;6.35;2.20;;;11.70;48.00;;;;;;4968665;28;20022;-72
2022/01/18 11:08:04;;;;;;;8.88;2.40;;;11.40;48.80;;;;;;4966167;28;20018;-73
2022/01/18 11:10:35;;;;;;;8.90;2.17;;;11.10;49.40;;;;;;4966291;28;20105;-72
2022/01/18 11:13:17;;;;;;;8.00;2.15;;;11.20;50.10;;;;;;4964069;28;20027;-72
2022/01/18 11:15:48;;;;;;;8.30;2.47;;;11.10;50.30;;;;;;4964178;28;20038;-72
2022/01/18 11:18:30;;;;;;;8.88;2.95;;;10.90;50.90;;;;;;4960431;28;20448;-73
2022/01/18 11:20:56;;;;;;;9.02;2.20;;;10.70;51.50;;;;;;4969223;28;20109;-72
2022/01/18 11:23:23;;;;;;;5.32;2.10;;;10.60;52.10;;;;;;4959939;28;20025;-72
2022/01/18 11:25:52;;;;;;;5.93;2.00;;;10.60;52.60;;;;;;4966753;28;20438;-72
2022/01/18 11:28:20;;;;;;;5.55;1.98;;;10.60;53.00;;;;;;4954515;28;20088;-72
2022/01/18 11:30:48;;;;;;;5.63;1.95;;;10.60;53.10;;;;;;4963276;28;20027;-72
2022/01/18 11:33:20;;;;;;;9.50;2.45;;;10.50;52.30;;;;;;4962475;28;20073;-75
2022/01/18 11:35:54;;;;;;;7.15;1.88;;;10.30;52.70;;;;;;4970089;28;20065;-73
2022/01/18 11:38:30;;;;;;;9.23;2.40;;;10.20;53.60;;;;;;4957885;28;20027;-74
2022/01/18 11:40:58;;;;;;;7.85;2.10;;;10.10;54.20;;;;;;4993713;28;20019;-72
2022/01/18 11:43:32;;;;;;;7.38;2.28;;;9.90;53.90;;;;;;4965845;28;20134;-73
2022/01/18 11:45:58;;;;;;;6.63;2.13;;;9.90;54.50;;;;;;4963608;28;20033;-72
2022/01/18 11:48:25;;;;;;;7.53;2.23;;;9.90;54.40;;;;;;4965282;28;20034;-73
2022/01/18 11:51:06;;;;;;;7.32;2.42;;;9.90;54.70;;;;;;4962647;28;20289;-73
2022/01/18 11:54:05;;;;;;;8.15;2.05;;;10.00;54.00;;;;;;4962303;28;20483;-72
2022/01/18 11:56:40;;;;;;;7.22;2.22;;;10.00;54.70;;;;;;4962069;28;20396;-72
2022/01/18 11:59:13;;;;;;;7.22;2.50;;;9.80;54.30;;;;;;4961772;28;20030;-73
2022/01/18 12:01:49;;;;;;;10.07;2.20;;;9.60;55.80;;;;;;4966842;28;20023;-73
2022/01/18 12:04:54;;;;;;;9.07;2.25;;;9.40;56.60;;;;;;4964803;28;20026;-71
2022/01/18 12:07:38;;;;;;;6.78;2.10;;;9.20;57.80;;;;;;4986686;28;20480;-74
2022/01/18 12:10:06;;;;;;;9.25;2.10;;;9.70;58.90;;;;;;4962679;28;20027;-71
2022/01/18 12:12:41;;;;;;;7.68;2.13;;;9.60;59.30;;;;;;4961843;28;20111;-74
2022/01/18 12:15:15;;;;;;;6.70;2.13;;;9.70;58.30;;;;;;4988543;28;20089;-72
2022/01/18 12:17:47;;;;;;;9.07;2.00;;;9.50;59.10;;;;;;4964358;28;20025;-72
2022/01/18 12:20:32;;;;;;;11.15;2.75;;;9.50;58.60;;;;;;4963381;28;20169;-74
2022/01/18 12:23:25;;;;;;;10.63;2.03;;;9.40;59.60;;;;;;4986974;28;20100;-74
2022/01/18 12:34:38;;;;;;;7.20;2.25;;;9.40;60.30;;;;;;4964839;28;20038;-74
2022/01/18 12:40:08;;;;;;;12.52;2.85;;;9.10;60.50;;;;;;4971618;28;19912;-76
2022/01/18 12:45:19;;;;;;;7.20;2.22;;;9.00;60.40;;;;;;4964421;28;20477;-72
2022/01/18 12:48:07;;;;;;;9.45;2.03;;;8.70;61.20;;;;;;4969720;28;20361;-80
2022/01/18 12:50:38;;;;;;;9.40;2.10;;;8.50;61.40;;;;;;4966091;28;20050;-77
2022/01/18 12:53:07;;;;;;;7.35;2.03;;;8.40;62.40;;;;;;4962465;28;20073;-72
2022/01/18 12:55:48;;;;;;;6.45;1.88;;;8.40;62.60;;;;;;4961384;28;20128;-73
2022/01/18 12:58:17;;;;;;;6.32;2.22;;;8.30;62.60;;;;;;4964079;28;20023;-72
2022/01/18 13:00:50;;;;;;;7.78;1.85;;;8.20;62.50;;;;;;4966023;28;20428;-73
2022/01/18 13:03:40;;;;;;;7.20;1.65;;;7.90;63.90;;;;;;4965172;28;20026;-79
2022/01/18 13:06:28;;;;;;;5.13;2.08;;;7.70;64.70;;;;;;4969734;28;20613;-75
2022/01/18 13:08:57;;;;;;;13.07;2.45;;;7.60;64.30;;;;;;4971315;28;20505;-72
2022/01/18 13:11:29;;;;;;;7.57;2.22;;;7.50;64.30;;;;;;4958482;28;20113;-72
2022/01/18 13:14:07;;;;;;;6.60;2.80;;;7.40;65.10;;;;;;4965459;28;20113;-75
2022/01/18 13:29:48;;;;;;;6.15;1.55;;;7.00;70.70;;;;;;4967892;28;20452;-75
2022/01/18 13:32:23;;;;;;;12.10;5.70;;;6.90;70.40;;;;;;4964615;28;20026;-73
2022/01/18 13:34:57;;;;;;;12.55;2.42;;;6.90;69.70;;;;;;4967004;28;20014;-72
2022/01/18 13:37:27;;;;;;;8.40;3.05;;;6.80;69.50;;;;;;4967934;28;20424;-72
2022/01/18 13:39:55;;;;;;;10.63;2.95;;;6.70;69.20;;;;;;4972154;28;20037;-72
2022/01/18 13:42:32;;;;;;;8.57;2.03;;;6.60;69.70;;;;;;4965685;28;21034;-72
2022/01/18 13:45:19;;;;;;;6.00;1.95;;;6.60;70.20;;;;;;4965931;28;20027;-72
2022/01/18 13:48:02;;;;;;;6.03;2.42;;;6.50;71.60;;;;;;4968923;28;20041;-74
2022/01/18 13:50:42;;;;;;;5.30;2.30;;;6.50;71.40;;;;;;4987311;28;20109;-74
2022/01/18 13:53:13;;;;;;;6.28;2.50;;;6.40;72.00;;;;;;4966137;28;20030;-73
2022/01/18 13:55:51;;;;;;;11.43;2.40;;;6.40;73.20;;;;;;4963071;28;20097;-75
2022/01/18 13:58:29;;;;;;;8.00;1.95;;;6.20;74.10;;;;;;4963336;28;20022;-73
2022/01/18 14:01:05;;;;;;;8.88;2.38;;;6.10;75.30;;;;;;4969794;28;20050;-71
2022/01/18 14:03:36;;;;;;;9.90;2.40;;;5.90;76.60;;;;;;4968647;28;20082;-73
2022/01/18 14:06:03;;;;;;;10.35;2.75;;;5.80;77.90;;;;;;4962892;28;20019;-74
2022/01/18 14:08:50;;;;;;;6.10;1.95;;;5.70;79.00;;;;;;4966090;28;20520;-72
2022/01/18 14:11:24;;;;;;;11.60;3.03;;;5.70;79.90;;;;;;4961424;28;20575;-73
2022/01/18 14:13:55;;;;;;;11.30;3.72;;;5.50;81.30;;;;;;4967733;28;20105;-72
2022/01/18 14:16:20;;;;;;;4.97;2.65;;;5.50;82.80;;;;;;4960646;28;20023;-73
2022/01/18 14:18:56;;;;;;;6.37;2.37;;;5.40;83.90;;;;;;4978708;28;21546;-76
2022/01/18 14:21:23;;;;;;;9.98;2.70;;;5.30;84.10;;;;;;4966769;28;20012;-72
2022/01/18 14:23:48;;;;;;;6.13;2.15;;;5.20;85.10;;;;;;4970929;28;20113;-72
2022/01/18 14:26:21;;;;;;;6.70;2.07;;;5.20;84.90;;;;;;4964563;28;20113;-73
2022/01/18 14:29:00;;;;;;;10.88;3.00;;;5.20;85.50;;;;;;4967369;28;20077;-73
2022/01/18 14:31:26;;;;;;;11.80;2.60;;;5.10;85.80;;;;;;4960920;28;20022;-72
2022/01/18 14:33:54;;;;;;;7.70;2.60;;;5.00;86.10;;;;;;4966072;28;20022;-74
2022/01/18 14:36:20;;;;;;;5.78;2.17;;;4.90;87.20;;;;;;4960456;28;20022;-75
2022/01/18 14:38:46;;;;;;;11.25;2.75;;;4.90;88.40;;;;;;4969056;28;20018;-72
2022/01/18 14:41:19;;;;;;;9.40;2.80;;;4.70;89.00;;;;;;4966478;28;20123;-72
2022/01/18 14:43:52;;;;;;;12.95;2.88;;;4.60;90.00;;;;;;4969238;28;20044;-73
2022/01/18 14:46:25;;;;;;;9.40;3.10;;;4.50;90.40;;;;;;4961057;28;20106;-72
2022/01/18 14:48:54;;;;;;;8.70;2.72;;;4.30;90.90;;;;;;4968515;28;20054;-72